createdAt,value
2022-12-13T08:26:29.282Z,42.08
2022-12-13T08:29:35.915Z,42.33
2022-12-13T08:55:32.142Z,47.67
2022-12-13T08:58:35.004Z,39.95
2022-12-13T09:13:01.786Z,33.53
2022-12-13T09:26:05.984Z,35.10
2022-12-13T09:38:17.447Z,38.67
2022-12-13T09:50:03.939Z,37.72
2022-12-13T10:01:48.742Z,36.80
2022-12-13T10:13:02.498Z,33.15
2022-12-13T10:16:10.236Z,27.52
2022-12-13T10:25:50.939Z,32.85
2022-12-13T10:29:03.840Z,35.83
2022-12-13T10:32:13.601Z,31.77
2022-12-13T10:35:27.914Z,33.55
2022-12-13T10:38:32.520Z,34.70
2022-12-13T10:41:38.807Z,32.78
2022-12-13T10:44:41.575Z,37.45
2022-12-13T10:47:45.317Z,35.55
2022-12-13T10:50:59.539Z,35.22
2022-12-13T10:54:02.212Z,29.25
2022-12-13T10:57:06.729Z,30.05
2022-12-13T11:00:32.341Z,28.67
2022-12-13T11:03:35.859Z,32.95
2022-12-13T11:06:43.426Z,32.03
2022-12-13T11:09:52.449Z,27.77
2022-12-13T11:13:03.686Z,26.20
2022-12-13T11:16:29.063Z,27.70
2022-12-13T11:19:38.141Z,22.25
2022-12-13T11:22:40.721Z,26.88
2022-12-13T11:25:46.109Z,29.33
2022-12-13T11:29:09.358Z,20.48
2022-12-13T11:32:22.797Z,25.70
2022-12-13T11:35:33.745Z,27.67
2022-12-13T11:38:52.868Z,23.92
2022-12-13T11:42:05.265Z,20.30
2022-12-13T11:45:22.243Z,17.60
2022-12-13T11:48:33.200Z,22.08
2022-12-13T11:51:43.812Z,25.08
2022-12-13T11:54:54.642Z,24.52
2022-12-13T12:02:42.659Z,17.35
2022-12-13T12:05:50.028Z,19.15
2022-12-13T12:09:01.553Z,18.65
2022-12-13T12:12:12.083Z,18.25
2022-12-13T12:15:26.719Z,21.02
2022-12-13T12:23:23.833Z,17.17
2022-12-13T12:58:55.438Z,26.52
2022-12-13T13:21:30.407Z,28.33
